createdAt,value
2017-10-09T00:01:28.892Z,72.93
2017-10-09T00:03:55.764Z,73.64
2017-10-09T00:06:22.704Z,73.46
2017-10-09T00:08:50.488Z,73.77
2017-10-09T00:11:17.271Z,73.97
2017-10-09T00:13:44.152Z,73.77
2017-10-09T00:16:11.015Z,73.86
2017-10-09T00:18:37.805Z,73.58
2017-10-09T00:21:04.608Z,73.72
2017-10-09T00:23:31.490Z,74.14
2017-10-09T00:25:58.287Z,74.19
2017-10-09T00:28:27.023Z,74.30
2017-10-09T00:30:56.638Z,73.89
2017-10-09T00:33:23.508Z,74.32
2017-10-09T00:35:57.108Z,74.34
2017-10-09T00:38:24.665Z,74.44
2017-10-09T00:40:51.445Z,74.90
2017-10-09T00:43:19.934Z,74.67
2017-10-09T00:45:46.678Z,74.87
2017-10-09T00:48:13.473Z,75.03
2017-10-09T00:50:40.578Z,74.56
2017-10-09T00:53:08.468Z,74.48
2017-10-09T00:55:35.393Z,74.70
2017-10-09T00:58:02.191Z,74.86
2017-10-09T01:00:29.097Z,74.63
2017-10-09T01:02:55.916Z,74.74
2017-10-09T01:05:24.577Z,74.52
2017-10-09T01:07:51.402Z,74.48
2017-10-09T01:10:18.336Z,73.99
2017-10-09T01:12:45.237Z,74.08
2017-10-09T01:15:12.057Z,74.35
2017-10-09T01:17:38.951Z,74.39
2017-10-09T01:20:06.787Z,74.43
2017-10-09T01:22:33.755Z,74.24
2017-10-09T01:25:00.571Z,73.87
2017-10-09T01:27:27.471Z,73.60
2017-10-09T01:29:54.306Z,73.53
2017-10-09T01:32:21.191Z,73.47
2017-10-09T01:34:49.001Z,73.42
2017-10-09T01:37:15.817Z,73.66
2017-10-09T01:39:42.673Z,73.87
2017-10-09T01:42:09.626Z,73.65
2017-10-09T01:44:36.544Z,74.10
2017-10-09T01:47:03.318Z,74.61
2017-10-09T01:49:30.193Z,74.22
2017-10-09T01:51:56.969Z,74.40
2017-10-09T01:54:23.780Z,74.58
2017-10-09T01:56:50.768Z,74.74
2017-10-09T01:59:17.564Z,74.65
2017-10-09T02:01:44.490Z,74.48
2017-10-09T02:04:11.464Z,73.34
2017-10-09T02:06:38.290Z,72.73
2017-10-09T02:09:05.167Z,72.35
2017-10-09T02:11:32.067Z,71.84
2017-10-09T02:13:58.930Z,71.71
2017-10-09T02:16:25.742Z,71.23
2017-10-09T02:18:54.447Z,71.31
2017-10-09T02:21:22.314Z,70.75
2017-10-09T02:23:49.195Z,69.82
2017-10-09T02:26:17.148Z,69.71
2017-10-09T02:28:44.041Z,69.96
2017-10-09T02:31:10.843Z,68.86
2017-10-09T02:33:40.228Z,68.58
2017-10-09T02:36:07.175Z,68.26
2017-10-09T02:38:33.986Z,68.16
2017-10-09T02:41:00.957Z,68.31
2017-10-09T02:43:27.811Z,68.08
2017-10-09T02:45:54.620Z,67.79
2017-10-09T02:48:21.456Z,67.95
2017-10-09T02:50:48.439Z,68.88
2017-10-09T02:53:15.244Z,68.10
2017-10-09T02:55:42.306Z,68.28
2017-10-09T02:58:09.074Z,67.86
2017-10-09T03:00:35.875Z,67.64
2017-10-09T03:03:02.790Z,67.44
2017-10-09T03:05:29.580Z,67.93
2017-10-09T03:07:56.344Z,68.34
2017-10-09T03:10:24.052Z,68.17
2017-10-09T03:12:50.874Z,68.48
2017-10-09T03:15:17.670Z,68.44
2017-10-09T03:17:45.445Z,68.50
2017-10-09T03:20:12.326Z,68.73
2017-10-09T03:22:54.650Z,68.81
2017-10-09T03:25:21.503Z,68.89
2017-10-09T03:27:54.317Z,69.25
2017-10-09T03:30:21.397Z,69.38
2017-10-09T03:32:48.333Z,69.26
2017-10-09T03:35:15.227Z,69.72
2017-10-09T03:37:45.531Z,70.54
2017-10-09T03:40:12.298Z,70.46
2017-10-09T03:42:39.202Z,70.85
2017-10-09T03:45:07.058Z,70.99
2017-10-09T03:47:34.514Z,71.19
2017-10-09T03:50:01.309Z,71.71
2017-10-09T03:52:31.064Z,71.94
2017-10-09T03:54:57.953Z,71.89
2017-10-09T03:57:24.832Z,71.68
2017-10-09T03:59:51.777Z,71.80
2017-10-09T04:02:20.027Z,71.83
2017-10-09T04:04:46.931Z,71.61
2017-10-09T04:07:13.936Z,71.60
2017-10-09T04:09:40.837Z,71.51
2017-10-09T04:12:07.585Z,70.92
2017-10-09T04:14:34.447Z,70.87
2017-10-09T04:17:01.395Z,70.12
2017-10-09T04:19:28.132Z,70.39
2017-10-09T04:21:56.879Z,70.48
2017-10-09T04:24:23.702Z,69.72
2017-10-09T04:26:50.625Z,70.02
2017-10-09T04:29:17.657Z,70.05
2017-10-09T04:31:44.623Z,70.03
2017-10-09T04:34:11.519Z,70.09
2017-10-09T04:36:40.254Z,69.70
2017-10-09T04:39:07.145Z,69.64
2017-10-09T04:41:35.174Z,69.48
2017-10-09T04:44:03.464Z,69.66
2017-10-09T04:46:30.424Z,69.48
2017-10-09T04:48:58.742Z,68.66
2017-10-09T04:51:25.765Z,68.46
2017-10-09T04:53:52.534Z,67.53
2017-10-09T04:56:19.305Z,67.32
2017-10-09T04:58:47.152Z,65.57
2017-10-09T05:01:13.883Z,64.90
2017-10-09T05:03:40.832Z,64.38
2017-10-09T05:06:07.841Z,64.02
2017-10-09T05:08:34.582Z,64.14
2017-10-09T05:11:12.883Z,64.17
2017-10-09T05:16:36.963Z,63.46
2017-10-09T05:19:14.048Z,63.44
2017-10-09T05:21:51.576Z,62.57
2017-10-09T05:24:20.997Z,62.05
2017-10-09T05:26:49.710Z,61.85
2017-10-09T05:29:20.120Z,61.47
2017-10-09T05:31:48.602Z,61.70
2017-10-09T05:34:17.622Z,61.76
2017-10-09T05:36:46.181Z,61.76
2017-10-09T17:31:10.080Z,61.08
2017-10-09T17:33:37.721Z,60.72
2017-10-09T17:36:05.022Z,61.22
2017-10-09T17:38:34.319Z,60.96
2017-10-09T17:41:01.474Z,61.07
2017-10-09T17:43:28.610Z,61.35
2017-10-09T17:45:56.871Z,61.77
2017-10-09T17:48:24.100Z,62.14
2017-10-09T17:50:52.888Z,62.43
2017-10-09T17:53:26.520Z,62.51
2017-10-09T17:55:54.505Z,63.37
2017-10-09T17:58:36.905Z,64.50
2017-10-09T18:01:07.081Z,64.09
2017-10-09T18:03:33.989Z,64.14
2017-10-09T18:06:04.544Z,64.06
2017-10-09T18:08:31.493Z,64.07
2017-10-09T18:10:58.824Z,64.28
2017-10-09T18:13:25.832Z,64.40
2017-10-09T18:15:52.945Z,64.55
2017-10-09T18:18:24.027Z,64.63
2017-10-09T18:20:54.510Z,64.77
2017-10-09T18:23:21.502Z,64.59
2017-10-09T18:25:49.338Z,64.78
2017-10-09T18:28:16.953Z,64.85
2017-10-09T18:30:54.632Z,64.51
2017-10-09T18:33:24.346Z,64.65
2017-10-09T18:35:51.414Z,64.58
2017-10-09T18:38:18.421Z,64.71
2017-10-09T18:40:48.328Z,64.71
2017-10-09T18:43:16.447Z,64.81
2017-10-09T18:45:43.490Z,64.76
2017-10-09T18:48:11.536Z,64.81
2017-10-09T18:50:38.931Z,65.22
2017-10-09T18:53:06.062Z,65.33
2017-10-09T18:55:36.852Z,65.66
2017-10-09T18:58:03.867Z,65.79
2017-10-09T19:00:30.904Z,66.09
2017-10-09T19:02:58.015Z,66.34
2017-10-09T19:05:25.034Z,66.12
2017-10-09T19:07:53.246Z,66.14
2017-10-09T19:10:25.428Z,66.31
2017-10-09T19:12:52.539Z,66.94
2017-10-09T19:15:19.589Z,66.61
2017-10-09T19:17:49.674Z,66.86
2017-10-09T19:20:16.708Z,66.67
2017-10-09T19:22:44.637Z,66.58
2017-10-09T19:25:13.685Z,67.21
2017-10-09T19:27:40.628Z,66.78
2017-10-09T19:30:07.771Z,67.13
2017-10-09T19:32:35.813Z,66.51
2017-10-09T19:35:02.859Z,66.40
2017-10-09T19:37:29.925Z,66.16
2017-10-09T19:39:58.040Z,65.91
2017-10-09T19:42:25.049Z,65.83
2017-10-09T19:44:52.014Z,66.71
2017-10-09T19:47:21.065Z,66.36
2017-10-09T19:49:48.074Z,66.48
2017-10-09T19:52:14.943Z,66.24
2017-10-09T19:54:43.238Z,65.54
2017-10-09T19:57:10.531Z,65.66
2017-10-09T19:59:37.793Z,66.24
2017-10-09T20:02:06.518Z,66.35
2017-10-09T20:07:56.550Z,65.26
2017-10-09T20:10:38.831Z,64.31
2017-10-09T20:13:10.322Z,63.62
2017-10-09T20:15:37.551Z,63.00
2017-10-09T20:24:10.036Z,62.16
2017-10-09T20:26:45.295Z,62.13
2017-10-09T20:29:21.673Z,62.43
2017-10-09T20:31:49.066Z,62.44
2017-10-09T20:34:26.870Z,62.93
2017-10-09T20:37:01.596Z,63.11
2017-10-09T20:39:36.355Z,63.31
2017-10-09T20:42:11.616Z,62.71
2017-10-09T20:44:48.214Z,62.27
2017-10-09T20:47:22.819Z,62.92
2017-10-09T20:49:49.622Z,63.29
2017-10-09T20:52:16.389Z,63.59
2017-10-09T20:54:52.578Z,64.06
2017-10-09T20:57:27.412Z,63.78
2017-10-09T20:59:54.270Z,64.18
2017-10-09T21:02:29.668Z,64.40
2017-10-09T21:05:04.349Z,64.57
2017-10-09T21:07:39.734Z,64.66
2017-10-09T21:10:14.389Z,65.00
2017-10-09T21:12:49.860Z,64.92
2017-10-09T21:15:27.929Z,65.17
2017-10-09T21:18:02.874Z,64.97
2017-10-09T21:20:38.737Z,65.02
2017-10-09T21:23:15.878Z,64.64
2017-10-09T21:25:51.558Z,64.57
2017-10-09T21:28:26.582Z,64.64
2017-10-09T21:30:53.408Z,64.49
2017-10-09T21:33:27.962Z,64.49
2017-10-09T21:36:02.623Z,64.57
2017-10-09T21:38:37.501Z,64.82
2017-10-09T21:41:12.906Z,65.13
2017-10-09T21:43:52.566Z,65.09
2017-10-09T21:46:27.202Z,65.17
2017-10-09T21:49:01.604Z,65.35
2017-10-09T21:51:38.011Z,65.33
2017-10-09T21:54:12.964Z,65.50
2017-10-09T21:56:48.535Z,65.38
2017-10-09T21:59:23.339Z,65.65
2017-10-09T22:01:59.710Z,65.74
2017-10-09T22:04:34.639Z,65.41
2017-10-09T22:07:10.406Z,65.44
2017-10-09T22:09:45.831Z,65.29
2017-10-09T22:12:21.574Z,65.17
2017-10-09T22:14:56.262Z,65.35
2017-10-09T22:17:32.032Z,65.54
2017-10-09T22:20:07.425Z,65.69
2017-10-09T22:22:42.147Z,65.64
2017-10-09T22:25:17.551Z,65.75
2017-10-09T22:27:53.226Z,65.70
2017-10-09T22:30:28.339Z,65.74
2017-10-09T22:33:03.173Z,65.40
2017-10-09T22:35:39.240Z,65.92
2017-10-09T22:38:14.734Z,65.94
2017-10-09T22:40:49.581Z,66.06
2017-10-09T22:43:24.440Z,66.33
2017-10-09T22:45:59.813Z,65.95
2017-10-09T22:48:34.773Z,65.95
2017-10-09T22:51:10.106Z,65.76
2017-10-09T22:53:45.133Z,65.74
2017-10-09T22:56:19.646Z,66.30
2017-10-09T22:58:54.371Z,66.17
2017-10-09T23:01:29.027Z,66.26
2017-10-09T23:04:03.670Z,66.53
2017-10-09T23:06:39.066Z,67.08
2017-10-09T23:09:14.416Z,66.69
2017-10-09T23:11:49.408Z,66.74
2017-10-09T23:14:27.214Z,66.60
2017-10-09T23:17:02.360Z,66.34
2017-10-09T23:19:37.881Z,66.47
2017-10-09T23:22:12.396Z,66.35
2017-10-09T23:24:47.951Z,66.37
2017-10-09T23:27:23.420Z,66.27
2017-10-09T23:29:55.378Z,66.06
2017-10-09T23:32:30.505Z,65.81
2017-10-09T23:35:09.425Z,65.50
2017-10-09T23:37:44.886Z,65.07
2017-10-09T23:40:19.557Z,64.72
2017-10-09T23:42:54.863Z,64.46
2017-10-09T23:45:29.709Z,64.33
2017-10-09T23:48:04.816Z,64.43
2017-10-09T23:50:39.739Z,64.14
2017-10-09T23:53:14.160Z,63.79
2017-10-09T23:55:49.045Z,63.76
2017-10-09T23:58:24.237Z,63.82
